Time,TemperatureF,DewpointF,PressureIn,WindDirection,WindDirectionDegrees,WindSpeedMPH,WindSpeedGustMPH,Humidity,HourlyPrecipIn,Conditions,Clouds,dailyrainin,SoftwareType,DateUTC
2014-04-18 00:22:00,60.0,60.0,30.19,ESE,102,4.0,7.0,99,0.00,,,0.00,,2014-04-18 05:22:00,
2014-04-18 00:52:00,61.0,61.0,30.18,ENE,77,9.0,9.0,99,0.00,,,0.04,,2014-04-18 05:52:00,
2014-04-18 01:22:00,59.0,59.0,30.16,East,101,7.0,9.0,99,0.00,,,0.00,,2014-04-18 06:22:00,
2014-04-18 01:52:00,60.0,60.0,30.15,ENE,77,5.0,10.0,99,0.00,,,0.02,,2014-04-18 06:52:00,
2014-04-18 02:22:00,60.0,60.0,30.13,East,87,8.0,15.0,99,0.06,,,0.06,,2014-04-18 07:22:00,
2014-04-18 02:52:00,60.0,60.0,30.11,East,80,8.0,9.0,99,0.14,,,0.16,,2014-04-18 07:52:00,
2014-04-18 03:22:00,60.0,60.0,30.10,East,84,2.0,9.0,99,0.14,,,0.20,,2014-04-18 08:22:00,
2014-04-18 03:52:00,60.0,60.0,30.08,East,91,4.0,10.0,99,0.06,,,0.22,,2014-04-18 08:52:00,
2014-04-18 04:22:00,60.0,60.0,30.07,East,91,6.0,8.0,99,0.00,,,0.18,,2014-04-18 09:22:00,
2014-04-18 04:54:00,60.0,60.0,30.07,ESE,102,0.0,12.0,99,0.14,,,0.36,,2014-04-18 09:54:00,
2014-04-18 05:23:00,60.0,60.0,30.07,ENE,59,8.0,10.0,99,0.36,,,0.54,,2014-04-18 10:23:00,
2014-04-18 05:54:00,60.0,60.0,30.06,East,87,1.0,14.0,99,0.46,,,0.84,,2014-04-18 10:54:00,
2014-04-18 06:22:00,59.0,59.0,30.06,NE,53,3.0,9.0,99,0.32,,,0.82,,2014-04-18 11:22:00,
2014-04-18 06:53:00,59.0,59.0,30.08,East,98,4.0,8.0,99,0.14,,,0.98,,2014-04-18 11:53:00,
2014-04-18 07:22:00,59.0,59.0,30.08,ENE,67,2.0,9.0,99,0.18,,,1.00,,2014-04-18 12:22:00,
2014-04-18 07:53:00,59.0,59.0,30.08,East,85,6.0,10.0,99,0.16,,,1.14,,2014-04-18 12:53:00,
2014-04-18 08:22:00,59.0,59.0,30.07,ENE,71,4.0,9.0,99,0.14,,,1.14,,2014-04-18 13:22:00,
2014-04-18 08:52:00,59.0,59.0,30.07,East,92,6.0,12.0,99,0.04,,,1.18,,2014-04-18 13:52:00,
2014-04-18 09:22:00,60.0,60.0,30.06,NE,52,6.0,16.0,99,0.16,,,1.30,,2014-04-18 14:22:00,
2014-04-18 09:51:00,59.0,59.0,30.06,NNE,28,0.0,10.0,99,0.16,,,1.44,,2014-04-18 14:51:00,
2014-04-18 10:21:00,60.0,60.0,30.07,East,99,6.0,13.0,99,0.32,,,1.62,,2014-04-18 15:21:00,
2014-04-18 10:53:00,59.0,59.0,30.06,NNE,23,3.0,13.0,99,0.50,,,1.94,,2014-04-18 15:53:00,
2014-04-18 11:22:00,58.0,58.0,30.07,East,91,6.0,14.0,99,0.50,,,2.12,,2014-04-18 16:22:00,
2014-04-18 11:52:00,59.0,59.0,30.07,NNE,21,3.0,13.0,99,0.30,,,2.24,,2014-04-18 16:52:00,